Astoria, South Dakota
Current Conditions -  °F | °C
As of 1:34 AM on Saturday 01 Nov 2014 (Local Time) from KCNB Reporting Station
Clear Clear  
Wind Chill: 19°   Ceiling: Unl
Heat Index: 26°   Visibility: 10mi
Dew Point: 19°   Wind: 7mph
Humidity: 75%   Direction: 160°SSE
Pressure: 30.4"   Gusts: NA
Location:  44.56°N, 96.55°W
Report Text: KCNB 010634Z AUTO 16006KT 10SM CLR M03/M07 A3040 RMK AO2 T10321071
Loading
Personal Weather Stations






























Interactive Weather Map
Tropical Storm Tracking
New forecast layout! Learn more

10-Day Weather Forecast

Advertisements
Track Severe Weather on mobile